Time;durP1;ratioP1;P1;durP2;ratioP2;P2;SDS_P1;SDS_P2;PMS_P1;PMS_P2;Temp;Humidity;BMP_temperature;BMP_pressure;BME280_temperature;BME280_humidity;BME280_pressure;Samples;Min_cycle;Max_cycle;Signal;HPM_P1;HPM_P2
2021/11/08 00:00:46;;;;;;;4.30;2.17;;;10.70;1.00;;;;;;5039030;28;20472;-82
2021/11/08 00:03:19;;;;;;;2.97;1.70;;;10.70;1.00;;;;;;5048682;28;20540;-81
2021/11/08 00:05:48;;;;;;;2.40;1.90;;;10.70;1.00;;;;;;5049244;28;20555;-83
2021/11/08 00:08:17;;;;;;;6.60;1.87;;;10.70;1.00;;;;;;5043353;28;20455;-81
2021/11/08 00:10:47;;;;;;;4.80;2.53;;;10.70;1.00;;;;;;5037307;28;20484;-83
2021/11/08 00:13:15;;;;;;;5.83;1.90;;;10.40;1.00;;;;;;5049754;28;20538;-83
2021/11/08 00:15:52;;;;;;;2.50;1.77;;;10.70;1.00;;;;;;5036602;28;20448;-81
2021/11/08 00:18:28;;;;;;;5.00;2.17;;;10.70;1.00;;;;;;5044023;28;20476;-81
2021/11/08 00:20:57;;;;;;;9.53;2.80;;;10.70;1.00;;;;;;5046107;28;20998;-81
2021/11/08 00:23:27;;;;;;;2.93;2.47;;;10.70;1.00;;;;;;5044217;28;20526;-79
2021/11/08 00:25:58;;;;;;;3.37;2.20;;;10.60;1.00;;;;;;5037299;28;20479;-79
2021/11/08 00:28:27;;;;;;;3.33;2.53;;;10.60;1.00;;;;;;5043567;28;20450;-80
2021/11/08 00:30:57;;;;;;;4.73;1.97;;;10.60;1.00;;;;;;5038966;28;20503;-78
2021/11/08 00:33:25;;;;;;;2.37;1.83;;;10.60;1.00;;;;;;5043773;28;20451;-80
2021/11/08 00:35:56;;;;;;;2.40;1.90;;;10.60;1.00;;;;;;5033536;28;20888;-80
2021/11/08 00:38:25;;;;;;;6.03;2.10;;;10.60;1.00;;;;;;5030762;28;20464;-80
2021/11/08 00:40:54;;;;;;;3.57;1.90;;;10.60;1.00;;;;;;5039855;28;20475;-79
2021/11/08 00:43:25;;;;;;;6.30;2.17;;;10.60;1.00;;;;;;5038428;28;20436;-79
2021/11/08 00:45:53;;;;;;;8.00;2.63;;;10.60;1.00;;;;;;5047041;28;20791;-79
2021/11/08 00:48:25;;;;;;;2.60;1.97;;;10.60;1.00;;;;;;5047892;28;20446;-80
2021/11/08 00:50:55;;;;;;;4.17;2.43;;;10.60;1.00;;;;;;5041273;28;20482;-79
2021/11/08 00:53:23;;;;;;;5.13;2.30;;;10.60;1.00;;;;;;5038718;28;20459;-79
2021/11/08 00:55:52;;;;;;;8.70;2.00;;;10.60;1.00;;;;;;5043153;28;20453;-80
2021/11/08 00:58:24;;;;;;;7.70;2.47;;;10.60;1.00;;;;;;5042491;28;20459;-81
2021/11/08 01:00:53;;;;;;;5.90;2.17;;;10.60;1.00;;;;;;5041344;28;20472;-79
2021/11/08 01:03:22;;;;;;;4.00;1.83;;;10.60;1.00;;;;;;5050676;28;20444;-80
2021/11/08 01:05:51;;;;;;;3.63;2.27;;;10.60;1.00;;;;;;5044280;28;20483;-80
2021/11/08 01:08:19;;;;;;;3.00;2.20;;;10.60;1.00;;;;;;5043248;28;20493;-79
2021/11/08 01:10:47;;;;;;;3.10;2.20;;;10.60;1.00;;;;;;5049438;28;20482;-79
2021/11/08 01:13:15;;;;;;;3.30;1.93;;;10.60;1.00;;;;;;5050177;28;20466;-79
2021/11/08 01:15:44;;;;;;;6.10;3.73;;;10.60;1.00;;;;;;5045464;28;20447;-79
2021/11/08 01:18:12;;;;;;;4.20;1.57;;;10.60;1.00;;;;;;5052105;28;20459;-79
2021/11/08 01:20:46;;;;;;;3.40;2.00;;;10.60;1.00;;;;;;5046570;28;20478;-80
2021/11/08 01:23:15;;;;;;;3.83;1.90;;;10.60;1.00;;;;;;5035329;28;20489;-79
2021/11/08 01:25:45;;;;;;;3.60;1.90;;;10.60;1.00;;;;;;5041870;28;20849;-79
2021/11/08 01:28:14;;;;;;;5.70;2.67;;;10.60;1.00;;;;;;5039916;28;20463;-81
2021/11/08 01:30:42;;;;;;;4.67;2.40;;;10.60;1.00;;;;;;5044549;28;20483;-80
2021/11/08 01:33:16;;;;;;;4.47;2.03;;;10.60;1.00;;;;;;5036322;28;20469;-81
2021/11/08 01:35:57;;;;;;;3.90;2.07;;;10.50;1.00;;;;;;5046996;28;20466;-83
2021/11/08 01:38:36;;;;;;;2.70;2.00;;;10.50;1.00;;;;;;5043704;28;20454;-82
2021/11/08 01:41:04;;;;;;;2.50;2.27;;;10.50;1.00;;;;;;5040635;28;20828;-82
2021/11/08 01:43:33;;;;;;;9.80;2.87;;;10.40;1.00;;;;;;5047240;28;20453;-81
2021/11/08 01:46:02;;;;;;;2.30;2.10;;;10.40;1.00;;;;;;5041859;28;20829;-80
2021/11/08 01:48:30;;;;;;;4.33;2.80;;;10.40;1.00;;;;;;5047246;28;20682;-82
2021/11/08 01:51:00;;;;;;;4.80;2.13;;;10.30;1.00;;;;;;5045190;28;20514;-81
2021/11/08 01:53:29;;;;;;;8.30;3.33;;;10.30;1.00;;;;;;5042874;28;20442;-80
2021/11/08 01:56:02;;;;;;;2.13;1.93;;;10.30;1.00;;;;;;5043497;28;20466;-81
2021/11/08 01:58:32;;;;;;;5.63;2.20;;;10.30;1.00;;;;;;5048540;28;20441;-80
2021/11/08 02:01:01;;;;;;;2.50;1.97;;;10.30;1.00;;;;;;5037771;28;20454;-81
2021/11/08 02:03:29;;;;;;;2.53;2.33;;;10.20;1.00;;;;;;5040557;28;20471;-81
2021/11/08 02:05:59;;;;;;;4.53;2.40;;;10.20;1.00;;;;;;5047202;28;20944;-80
2021/11/08 02:08:28;;;;;;;5.20;1.90;;;10.20;1.00;;;;;;5045481;28;20829;-81
2021/11/08 02:10:56;;;;;;;3.03;2.73;;;10.10;1.00;;;;;;5047519;28;20523;-81
2021/11/08 02:13:26;;;;;;;3.30;2.10;;;10.10;1.00;;;;;;5037085;28;20503;-80
2021/11/08 02:15:54;;;;;;;3.83;2.17;;;10.10;1.00;;;;;;5045027;28;20598;-81
2021/11/08 02:18:24;;;;;;;3.90;2.27;;;10.20;1.00;;;;;;5053155;28;20438;-81
2021/11/08 02:20:55;;;;;;;1.87;1.60;;;10.10;1.00;;;;;;5043372;28;20475;-82
2021/11/08 02:23:25;;;;;;;3.67;2.63;;;10.00;1.00;;;;;;5045775;28;20454;-82
2021/11/08 02:25:57;;;;;;;3.50;1.70;;;10.00;1.00;;;;;;5040810;28;20493;-80
2021/11/08 02:28:26;;;;;;;5.37;2.40;;;10.00;1.00;;;;;;5046255;28;20546;-80
2021/11/08 02:30:56;;;;;;;5.80;1.77;;;9.90;99.90;;;;;;5036308;28;20474;-79
2021/11/08 02:33:26;;;;;;;2.43;2.20;;;9.80;99.90;;;;;;5044527;28;20458;-80
2021/11/08 02:35:57;;;;;;;3.30;2.20;;;9.80;99.90;;;;;;5041420;28;20458;-79
2021/11/08 02:38:28;;;;;;;2.40;1.90;;;9.80;99.90;;;;;;5044912;28;20872;-79
2021/11/08 02:40:59;;;;;;;2.20;2.00;;;9.70;99.90;;;;;;5042578;28;20856;-80
2021/11/08 02:43:28;;;;;;;5.67;1.87;;;9.70;99.90;;;;;;5045285;28;20488;-79
2021/11/08 02:46:04;;;;;;;2.60;1.87;;;9.70;1.00;;;;;;5047734;28;20462;-79
2021/11/08 02:48:32;;;;;;;5.40;2.30;;;9.70;1.00;;;;;;5045050;28;20486;-81
2021/11/08 02:51:08;;;;;;;3.33;1.73;;;9.60;1.00;;;;;;5039439;28;20464;-80
2021/11/08 02:53:38;;;;;;;4.60;2.07;;;9.70;1.00;;;;;;5034517;28;20521;-79
2021/11/08 02:56:08;;;;;;;3.73;2.10;;;9.70;1.00;;;;;;5042265;28;20455;-79
2021/11/08 02:58:38;;;;;;;6.77;2.00;;;9.60;99.90;;;;;;5042507;28;20449;-77
2021/11/08 03:01:08;;;;;;;2.57;1.67;;;9.60;99.90;;;;;;5041418;28;20821;-79
2021/11/08 03:03:39;;;;;;;2.27;1.70;;;9.50;99.90;;;;;;5042533;28;20462;-81
2021/11/08 03:06:16;;;;;;;5.33;2.10;;;9.50;99.90;;;;;;5048095;28;20467;-79
2021/11/08 03:08:44;;;;;;;8.73;2.13;;;9.70;99.90;;;;;;5043472;28;20488;-82
2021/11/08 03:11:13;;;;;;;3.20;2.10;;;9.50;1.00;;;;;;5039976;28;20458;-81
2021/11/08 03:13:50;;;;;;;2.40;1.93;;;9.70;1.00;;;;;;5040013;28;20966;-80
2021/11/08 03:16:23;;;;;;;4.33;1.80;;;9.50;1.00;;;;;;5034639;28;20451;-82
2021/11/08 03:18:56;;;;;;;6.20;1.87;;;9.60;1.00;;;;;;5038518;28;20510;-81
2021/11/08 03:21:27;;;;;;;2.10;1.67;;;9.60;1.00;;;;;;5037734;28;20454;-80
2021/11/08 03:23:59;;;;;;;9.33;2.23;;;9.50;1.00;;;;;;5038239;28;20455;-80
2021/11/08 03:26:36;;;;;;;2.50;1.73;;;9.50;1.00;;;;;;5036800;28;20965;-79
2021/11/08 03:29:05;;;;;;;3.63;2.77;;;9.60;1.00;;;;;;5042491;28;20476;-80
2021/11/08 03:31:35;;;;;;;4.90;2.63;;;9.60;1.00;;;;;;5040717;28;20462;-81
2021/11/08 03:34:03;;;;;;;4.40;2.30;;;9.60;1.00;;;;;;5047076;28;20465;-80
2021/11/08 03:36:33;;;;;;;4.97;1.80;;;9.50;1.00;;;;;;5040964;28;20972;-81
2021/11/08 03:39:01;;;;;;;6.50;2.00;;;9.50;99.90;;;;;;5039017;28;21064;-79
2021/11/08 03:41:29;;;;;;;1.43;1.33;;;9.50;99.90;;;;;;5047986;28;20459;-80
2021/11/08 03:44:00;;;;;;;3.37;1.30;;;9.40;99.90;;;;;;5041319;28;20467;-79
2021/11/08 03:46:29;;;;;;;4.10;1.87;;;9.40;99.90;;;;;;5060996;28;21012;-80
2021/11/08 03:48:57;;;;;;;4.50;2.30;;;9.30;99.90;;;;;;5037659;28;20482;-79
2021/11/08 03:51:25;;;;;;;2.63;2.33;;;9.20;99.90;;;;;;5031417;28;20448;-79
2021/11/08 03:53:55;;;;;;;3.37;2.13;;;9.20;99.90;;;;;;5039172;28;20833;-81
2021/11/08 03:56:23;;;;;;;2.30;1.90;;;9.10;99.90;;;;;;5046282;28;20454;-79
2021/11/08 03:58:51;;;;;;;2.70;1.57;;;9.10;99.90;;;;;;5035193;28;20460;-79
2021/11/08 04:01:20;;;;;;;2.23;1.50;;;9.10;99.90;;;;;;5039999;28;20821;-79
2021/11/08 04:03:48;;;;;;;6.23;1.70;;;8.80;99.90;;;;;;5040642;28;20454;-79
2021/11/08 04:06:16;;;;;;;3.10;1.73;;;9.10;99.90;;;;;;5040932;28;20442;-79
2021/11/08 04:08:44;;;;;;;2.03;1.87;;;9.00;99.90;;;;;;5035798;28;20488;-80
2021/11/08 04:11:14;;;;;;;6.43;1.90;;;8.90;99.90;;;;;;5045909;28;20462;-81
2021/11/08 04:13:42;;;;;;;1.80;1.57;;;8.90;99.90;;;;;;5046076;28;20461;-80
2021/11/08 04:16:14;;;;;;;4.50;1.80;;;8.90;99.90;;;;;;5043520;28;20644;-80
2021/11/08 04:18:47;;;;;;;2.23;1.60;;;9.10;99.90;;;;;;5042934;28;20453;-80
2021/11/08 04:21:15;;;;;;;2.40;2.17;;;8.90;99.90;;;;;;5039504;28;20463;-79
2021/11/08 04:23:44;;;;;;;2.33;1.50;;;8.80;99.90;;;;;;5038429;28;20803;-81
2021/11/08 04:26:18;;;;;;;1.50;1.40;;;8.70;99.90;;;;;;5038417;28;20461;-81
2021/11/08 04:28:52;;;;;;;1.70;1.60;;;8.70;99.90;;;;;;5040514;28;20481;-80
2021/11/08 04:31:21;;;;;;;4.07;1.63;;;8.70;99.90;;;;;;5045481;28;20450;-81
2021/11/08 04:33:51;;;;;;;2.57;1.40;;;8.80;99.90;;;;;;5037791;28;20486;-81
2021/11/08 04:39:15;;;;;;;3.10;1.70;;;8.70;99.90;;;;;;5007925;28;20502;-81
2021/11/08 04:41:51;;;;;;;4.20;1.70;;;8.70;99.90;;;;;;5047212;28;20464;-81
2021/11/08 04:44:42;;;;;;;6.50;1.93;;;8.70;99.90;;;;;;5035507;28;20461;-79
2021/11/08 04:47:31;;;;;;;3.37;1.80;;;8.70;99.90;;;;;;5036065;28;20463;-80
2021/11/08 04:50:12;;;;;;;2.40;1.63;;;8.70;99.90;;;;;;5041548;28;21031;-78
2021/11/08 04:55:51;;;;;;;3.43;1.83;;;8.40;99.90;;;;;;5006315;28;20463;-80
2021/11/08 05:31:35;;;;;;;2.20;1.70;;;8.30;99.90;;;;;;5042849;28;20467;-80
2021/11/08 05:34:03;;;;;;;2.40;2.03;;;8.30;99.90;;;;;;5043202;28;20528;-76
2021/11/08 05:36:31;;;;;;;2.00;1.80;;;8.20;99.90;;;;;;5041420;28;20498;-77
2021/11/08 05:39:00;;;;;;;3.93;1.90;;;8.00;99.90;;;;;;5042113;28;20460;-78
2021/11/08 05:41:29;;;;;;;2.50;1.93;;;7.90;99.90;;;;;;5045654;28;20465;-80
2021/11/08 05:44:01;;;;;;;4.00;1.50;;;8.00;99.90;;;;;;5041395;28;21483;-78
2021/11/08 05:46:30;;;;;;;7.67;2.17;;;8.00;99.90;;;;;;5040669;28;20544;-78
2021/11/08 05:49:00;;;;;;;3.30;1.80;;;8.10;99.90;;;;;;5059847;28;20492;-78
2021/11/08 05:51:29;;;;;;;3.73;1.67;;;8.10;99.90;;;;;;5046351;28;20981;-79
2021/11/08 05:53:57;;;;;;;3.03;1.80;;;8.10;99.90;;;;;;5043240;28;20455;-78
2021/11/08 05:56:29;;;;;;;2.50;2.10;;;8.10;99.90;;;;;;5047348;28;20817;-77
2021/11/08 05:59:10;;;;;;;3.30;1.90;;;8.00;99.90;;;;;;5039049;28;21070;-79
2021/11/08 06:49:20;;;;;;;5.70;2.50;;;7.80;99.90;;;;;;5037017;28;20911;-78
2021/11/08 06:51:50;;;;;;;8.17;2.20;;;7.80;99.90;;;;;;5039710;28;20460;-78
2021/11/08 06:54:22;;;;;;;2.60;2.00;;;7.90;99.90;;;;;;5039086;28;20448;-79
2021/11/08 06:56:53;;;;;;;2.67;1.93;;;7.90;99.90;;;;;;5046604;28;20470;-80
2021/11/08 06:59:24;;;;;;;3.10;1.90;;;7.90;99.90;;;;;;5042905;28;20475;-80
2021/11/08 07:01:53;;;;;;;13.20;4.83;;;7.90;99.90;;;;;;5045409;28;20478;-79
2021/11/08 07:04:23;;;;;;;10.70;5.10;;;7.90;99.90;;;;;;5044234;28;20931;-79
2021/11/08 07:06:51;;;;;;;10.53;3.90;;;7.90;99.90;;;;;;5045352;28;20459;-78
2021/11/08 07:09:21;;;;;;;3.73;3.00;;;7.90;99.90;;;;;;5041526;28;21007;-80
2021/11/08 07:11:50;;;;;;;3.50;2.40;;;7.80;99.90;;;;;;5048567;28;20466;-79
2021/11/08 07:14:19;;;;;;;3.93;2.53;;;7.80;99.90;;;;;;5035587;28;20484;-79
2021/11/08 07:16:47;;;;;;;15.03;2.73;;;7.90;99.90;;;;;;5037553;28;20452;-80
2021/11/08 07:19:16;;;;;;;5.90;2.53;;;7.90;99.90;;;;;;5046262;28;20468;-80
2021/11/08 07:21:46;;;;;;;6.97;3.60;;;8.00;99.90;;;;;;5045746;28;20465;-79
2021/11/08 07:24:15;;;;;;;4.73;3.00;;;7.90;99.90;;;;;;5042857;28;20472;-80
2021/11/08 07:26:45;;;;;;;3.80;3.20;;;7.80;99.90;;;;;;5039421;28;20997;-79
2021/11/08 07:29:15;;;;;;;3.93;2.77;;;7.70;99.90;;;;;;5047688;28;20881;-78
2021/11/08 07:31:44;;;;;;;4.23;2.67;;;7.80;1.00;;;;;;5046192;28;20489;-79
2021/11/08 07:34:13;;;;;;;4.83;2.80;;;7.90;1.00;;;;;;5045120;28;20460;-79
2021/11/08 07:36:41;;;;;;;2.57;2.37;;;8.20;1.00;;;;;;5043943;28;20466;-79
2021/11/08 07:39:09;;;;;;;3.20;2.40;;;8.20;99.90;;;;;;5043059;28;20575;-79
2021/11/08 07:41:38;;;;;;;7.40;3.60;;;8.30;99.90;;;;;;5044180;28;20456;-78
2021/11/08 07:44:08;;;;;;;4.03;3.70;;;8.30;99.90;;;;;;5047261;28;21150;-77
2021/11/08 07:46:37;;;;;;;5.00;3.23;;;8.40;99.90;;;;;;5045310;28;20451;-80
2021/11/08 07:49:05;;;;;;;7.00;4.00;;;8.50;99.90;;;;;;5039101;28;20484;-79
2021/11/08 07:51:33;;;;;;;5.10;4.57;;;8.50;99.90;;;;;;5044877;28;20461;-79
2021/11/08 07:54:02;;;;;;;4.70;3.73;;;8.60;99.90;;;;;;5043637;28;20976;-79
2021/11/08 07:56:30;;;;;;;5.33;4.10;;;8.70;99.90;;;;;;5040037;28;20823;-79
2021/11/08 07:58:59;;;;;;;5.20;3.30;;;8.90;99.90;;;;;;5048028;28;20514;-78
2021/11/08 08:01:29;;;;;;;5.23;3.60;;;8.90;99.90;;;;;;5044418;28;20442;-79
2021/11/08 08:03:57;;;;;;;5.67;4.23;;;9.00;99.90;;;;;;5035577;28;20507;-79
2021/11/08 08:06:25;;;;;;;7.97;3.37;;;8.90;99.90;;;;;;5039986;28;20488;-78
2021/11/08 08:08:54;;;;;;;4.33;3.33;;;8.80;99.90;;;;;;5037030;28;20448;-79
2021/11/08 08:11:22;;;;;;;5.97;3.40;;;8.90;99.90;;;;;;5044745;28;20876;-78
2021/11/08 08:13:51;;;;;;;4.43;3.93;;;9.00;99.90;;;;;;5044222;28;20456;-79
2021/11/08 08:16:21;;;;;;;4.63;3.23;;;9.10;99.90;;;;;;5045041;28;20454;-79
2021/11/08 08:18:51;;;;;;;9.60;4.50;;;9.10;99.90;;;;;;5042984;28;20952;-79
2021/11/08 08:21:21;;;;;;;8.25;4.63;;;9.20;99.90;;;;;;5038801;28;20449;-78
2021/11/08 08:23:54;;;;;;;5.60;3.57;;;9.30;99.90;;;;;;5038353;28;20466;-79
2021/11/08 08:26:25;;;;;;;5.20;4.23;;;9.30;99.90;;;;;;5043551;28;20460;-78
2021/11/08 08:28:53;;;;;;;5.43;4.27;;;9.20;99.90;;;;;;5043340;28;20518;-80
2021/11/08 08:31:22;;;;;;;5.20;2.83;;;9.20;99.90;;;;;;5041154;28;20834;-79
2021/11/08 08:33:51;;;;;;;9.87;3.20;;;9.50;99.90;;;;;;5040858;28;20481;-79
2021/11/08 08:36:20;;;;;;;5.13;2.97;;;9.60;99.90;;;;;;5043581;28;20445;-79
2021/11/08 08:38:48;;;;;;;5.33;2.80;;;9.70;99.90;;;;;;5038335;28;20466;-78
2021/11/08 08:41:17;;;;;;;5.03;3.10;;;9.80;99.90;;;;;;5029325;28;20461;-79
2021/11/08 08:43:45;;;;;;;3.47;2.90;;;9.90;99.90;;;;;;5044364;28;21058;-78
2021/11/08 08:46:15;;;;;;;6.53;3.77;;;10.00;99.90;;;;;;5041910;28;20554;-79
2021/11/08 08:48:44;;;;;;;5.07;2.77;;;10.00;99.90;;;;;;5037169;28;20512;-80
2021/11/08 08:51:14;;;;;;;3.90;2.60;;;10.00;99.90;;;;;;5041450;28;20489;-79
2021/11/08 08:53:42;;;;;;;4.93;2.60;;;10.20;99.90;;;;;;5042924;28;20834;-79
2021/11/08 08:56:26;;;;;;;4.80;2.57;;;10.20;99.90;;;;;;5043543;28;20521;-79
2021/11/08 08:58:55;;;;;;;5.63;2.47;;;10.30;99.90;;;;;;5043734;28;20459;-79
2021/11/08 09:01:25;;;;;;;9.53;3.17;;;10.30;99.90;;;;;;5039000;28;20466;-78
2021/11/08 09:03:54;;;;;;;9.00;3.03;;;10.30;99.90;;;;;;5035454;28;20488;-79
2021/11/08 09:06:25;;;;;;;2.40;1.73;;;10.40;99.90;;;;;;5037132;28;20470;-79
2021/11/08 09:08:53;;;;;;;3.60;2.37;;;10.60;99.90;;;;;;5034832;28;20474;-79
2021/11/08 09:11:22;;;;;;;6.27;2.73;;;10.70;99.90;;;;;;5037025;28;20482;-78
2021/11/08 09:13:52;;;;;;;3.40;3.10;;;10.80;99.90;;;;;;5035496;28;20546;-79
2021/11/08 09:16:20;;;;;;;4.50;2.67;;;10.90;99.90;;;;;;5042556;28;20491;-79
2021/11/08 09:18:53;;;;;;;2.90;2.07;;;10.90;99.90;;;;;;5046724;28;20762;-79
2021/11/08 09:21:24;;;;;;;3.73;1.97;;;11.00;99.90;;;;;;5035485;28;20451;-80
2021/11/08 09:23:55;;;;;;;5.13;2.43;;;11.10;99.90;;;;;;5045268;28;21386;-79
2021/11/08 09:26:25;;;;;;;5.03;1.77;;;11.10;99.90;;;;;;5045236;28;20447;-78
2021/11/08 09:28:54;;;;;;;4.70;3.00;;;11.20;99.90;;;;;;5042339;28;20452;-79
2021/11/08 09:31:23;;;;;;;3.33;1.77;;;11.40;99.90;;;;;;5036325;28;20557;-79
2021/11/08 09:33:57;;;;;;;8.03;3.17;;;11.50;99.90;;;;;;5044610;28;20813;-79
2021/11/08 09:36:29;;;;;;;3.63;1.50;;;11.70;99.90;;;;;;5048238;28;20473;-80
2021/11/08 09:38:59;;;;;;;3.63;1.50;;;11.90;99.90;;;;;;5042553;28;20460;-80
2021/11/08 09:41:31;;;;;;;4.43;1.67;;;12.10;99.90;;;;;;5041522;28;20791;-80
2021/11/08 09:44:03;;;;;;;2.10;1.83;;;12.30;99.90;;;;;;5043192;28;21061;-79
2021/11/08 09:46:32;;;;;;;3.43;1.60;;;12.40;99.90;;;;;;5046223;28;20881;-79
2021/11/08 09:49:02;;;;;;;3.90;1.70;;;12.50;99.90;;;;;;5041991;28;20990;-80
2021/11/08 09:51:36;;;;;;;5.80;2.67;;;12.50;99.90;;;;;;5045013;28;20475;-80
2021/11/08 09:54:05;;;;;;;3.43;2.17;;;12.50;99.90;;;;;;5042726;28;20784;-80
2021/11/08 09:56:34;;;;;;;2.93;1.97;;;12.40;99.90;;;;;;5048809;28;20897;-78
2021/11/08 09:59:02;;;;;;;3.47;2.03;;;12.40;99.90;;;;;;5042135;28;20478;-80
2021/11/08 10:01:46;;;;;;;6.40;2.67;;;12.40;99.90;;;;;;5056336;28;20797;-79
2021/11/08 10:04:15;;;;;;;7.00;1.77;;;12.40;99.90;;;;;;5042408;28;20456;-80
2021/11/08 10:06:47;;;;;;;3.87;1.70;;;12.50;99.90;;;;;;5058465;28;20447;-79
2021/11/08 10:09:19;;;;;;;2.60;2.13;;;12.70;99.90;;;;;;5041314;28;20511;-79
2021/11/08 10:11:50;;;;;;;4.00;1.87;;;12.90;99.90;;;;;;5045701;28;20487;-79
2021/11/08 10:14:20;;;;;;;4.73;2.37;;;13.00;99.90;;;;;;5048500;28;20475;-79
2021/11/08 10:16:51;;;;;;;2.90;1.50;;;13.30;99.90;;;;;;5046756;28;20538;-79
2021/11/08 10:19:22;;;;;;;3.97;1.50;;;13.40;99.90;;;;;;5061308;28;20760;-80
2021/11/08 10:21:55;;;;;;;3.90;2.83;;;13.50;99.90;;;;;;5033525;28;20547;-79
2021/11/08 10:24:26;;;;;;;6.43;2.20;;;13.60;99.90;;;;;;5042574;28;20467;-79
2021/11/08 10:26:56;;;;;;;5.20;2.40;;;13.50;99.90;;;;;;5042076;28;20465;-79
2021/11/08 10:29:27;;;;;;;3.77;2.33;;;13.40;99.90;;;;;;5053282;28;20556;-78
2021/11/08 10:32:11;;;;;;;4.13;2.17;;;13.30;99.90;;;;;;5038295;28;20801;-78
2021/11/08 10:34:50;;;;;;;3.33;1.87;;;13.20;99.90;;;;;;5045250;28;21150;-79
2021/11/08 10:37:25;;;;;;;3.83;1.40;;;13.10;99.90;;;;;;5047673;28;21035;-81
2021/11/08 10:39:55;;;;;;;3.07;1.83;;;13.00;99.90;;;;;;5049348;28;20947;-79
2021/11/08 10:42:26;;;;;;;6.47;1.80;;;12.70;99.90;;;;;;5049948;28;20471;-78
2021/11/08 10:44:55;;;;;;;3.03;1.73;;;12.50;99.90;;;;;;5046106;28;20453;-78
2021/11/08 10:47:28;;;;;;;7.67;1.90;;;12.40;99.90;;;;;;5047342;28;20809;-78
2021/11/08 10:49:56;;;;;;;3.43;1.50;;;12.40;99.90;;;;;;5031116;28;20472;-79
2021/11/08 10:52:30;;;;;;;4.80;1.37;;;12.60;99.90;;;;;;5042437;28;20909;-80
2021/11/08 10:54:59;;;;;;;2.90;1.33;;;12.90;99.90;;;;;;5058641;28;20858;-80
2021/11/08 10:57:29;;;;;;;12.77;2.10;;;13.30;99.90;;;;;;5049032;28;20922;-79
2021/11/08 11:00:00;;;;;;;8.20;1.40;;;13.50;99.90;;;;;;5055917;28;20793;-79
2021/11/08 11:02:31;;;;;;;4.17;1.50;;;13.40;99.90;;;;;;5046846;28;20444;-79
2021/11/08 11:05:02;;;;;;;4.23;1.70;;;13.30;99.90;;;;;;5040488;28;20468;-79
2021/11/08 11:07:36;;;;;;;2.20;1.40;;;13.30;99.90;;;;;;5047523;28;20444;-79
2021/11/08 11:10:07;;;;;;;4.43;1.73;;;13.40;99.90;;;;;;5047524;28;20548;-78
2021/11/08 11:12:37;;;;;;;5.47;1.60;;;13.50;99.90;;;;;;5062234;28;20485;-80
2021/11/08 11:15:09;;;;;;;3.43;2.03;;;13.50;99.90;;;;;;5036884;28;20564;-79
2021/11/08 11:17:42;;;;;;;4.77;1.60;;;13.60;99.90;;;;;;5043468;28;20903;-77
2021/11/08 11:20:12;;;;;;;4.10;1.30;;;13.70;99.90;;;;;;5039308;28;21029;-80
2021/11/08 11:22:55;;;;;;;3.13;1.50;;;13.70;99.90;;;;;;5042514;28;21235;-78
2021/11/08 11:25:24;;;;;;;1.90;1.10;;;13.80;99.90;;;;;;5041893;28;20950;-79
2021/11/08 11:27:53;;;;;;;12.93;2.20;;;13.90;99.90;;;;;;5039939;28;20560;-79
2021/11/08 11:30:24;;;;;;;4.93;1.40;;;14.00;99.90;;;;;;5038202;28;20537;-80
2021/11/08 11:33:01;;;;;;;4.07;1.60;;;14.00;99.90;;;;;;5047529;28;20827;-79
2021/11/08 11:35:36;;;;;;;3.83;1.43;;;14.00;99.90;;;;;;5060440;28;20464;-79
2021/11/08 11:38:12;;;;;;;3.90;1.30;;;14.10;99.90;;;;;;5034338;28;20563;-78
2021/11/08 11:40:42;;;;;;;7.10;1.50;;;14.10;99.90;;;;;;5042971;28;20480;-79
2021/11/08 11:43:14;;;;;;;4.10;1.53;;;14.00;99.90;;;;;;5043852;28;20445;-79
2021/11/08 11:45:50;;;;;;;3.53;1.50;;;14.10;99.90;;;;;;5042883;28;20614;-79
2021/11/08 11:48:20;;;;;;;3.27;1.33;;;14.10;99.90;;;;;;5038830;28;21075;-77
2021/11/08 11:51:09;;;;;;;3.30;1.43;;;14.20;99.90;;;;;;5040780;28;20617;-78
2021/11/08 11:53:39;;;;;;;5.50;1.20;;;14.20;99.90;;;;;;5041428;28;20469;-78
2021/11/08 11:56:08;;;;;;;6.63;1.90;;;14.30;99.90;;;;;;5044756;28;20800;-77
2021/11/08 11:58:37;;;;;;;7.63;2.33;;;14.40;99.90;;;;;;5035481;28;20440;-78
2021/11/08 12:01:08;;;;;;;3.27;1.40;;;14.30;99.90;;;;;;5040712;28;20191;-78
2021/11/08 12:03:37;;;;;;;4.43;1.77;;;14.10;99.90;;;;;;5038013;28;20454;-78
2021/11/08 12:06:07;;;;;;;3.47;1.70;;;14.00;99.90;;;;;;5041381;28;20458;-79
2021/11/08 12:08:38;;;;;;;5.20;1.73;;;13.90;99.90;;;;;;5042781;28;20460;-80
2021/11/08 12:11:09;;;;;;;4.77;2.03;;;13.80;99.90;;;;;;5038145;28;20483;-79
2021/11/08 12:13:41;;;;;;;6.23;2.00;;;13.60;99.90;;;;;;5040218;28;20472;-78
2021/11/08 12:16:15;;;;;;;1.90;1.50;;;13.40;99.90;;;;;;5060129;28;20463;-78
2021/11/08 12:18:46;;;;;;;4.10;1.87;;;13.40;99.90;;;;;;5045955;28;20470;-79
2021/11/08 12:21:24;;;;;;;5.83;4.90;;;13.30;99.90;;;;;;5045112;28;20466;-78
2021/11/08 12:23:53;;;;;;;7.40;1.90;;;13.20;99.90;;;;;;5043675;28;20464;-77
2021/11/08 12:26:25;;;;;;;2.40;1.20;;;13.10;99.90;;;;;;5046544;28;21031;-78
2021/11/08 12:29:05;;;;;;;5.60;2.03;;;13.00;99.90;;;;;;5046959;28;20533;-78
2021/11/08 12:31:34;;;;;;;4.97;1.60;;;12.90;99.90;;;;;;5033379;28;20455;-78
2021/11/08 12:34:05;;;;;;;5.27;1.80;;;12.80;99.90;;;;;;5042410;28;20943;-78
2021/11/08 12:36:35;;;;;;;2.40;1.40;;;12.80;99.90;;;;;;5047328;28;20471;-79
2021/11/08 12:39:07;;;;;;;5.03;2.23;;;12.70;99.90;;;;;;5037956;28;20491;-79
2021/11/08 12:41:45;;;;;;;4.60;1.93;;;12.50;99.90;;;;;;5041475;28;20472;-79
2021/11/08 12:44:15;;;;;;;7.67;2.00;;;12.60;99.90;;;;;;5040979;28;20457;-78
2021/11/08 12:46:46;;;;;;;4.80;1.70;;;12.60;99.90;;;;;;5039999;28;20468;-79
2021/11/08 12:49:17;;;;;;;7.03;1.57;;;12.50;99.90;;;;;;5042669;28;20806;-79
2021/11/08 12:51:54;;;;;;;7.13;1.30;;;12.60;99.90;;;;;;5044295;28;20455;-79
2021/11/08 12:54:23;;;;;;;3.17;1.10;;;12.60;99.90;;;;;;5035914;28;20850;-79
2021/11/08 12:56:54;;;;;;;3.20;1.10;;;12.60;99.90;;;;;;5040108;28;21012;-80
2021/11/08 12:59:24;;;;;;;5.07;1.30;;;12.60;99.90;;;;;;5044337;28;20471;-80
2021/11/08 13:01:59;;;;;;;1.60;1.10;;;12.70;99.90;;;;;;5048487;28;20468;-79
2021/11/08 13:04:42;;;;;;;4.47;1.50;;;12.90;99.90;;;;;;5049038;28;20834;-78
2021/11/08 13:07:13;;;;;;;2.80;1.43;;;13.00;99.90;;;;;;5042554;28;20493;-79
2021/11/08 13:09:44;;;;;;;3.87;1.47;;;13.10;99.90;;;;;;5043897;28;21075;-80
2021/11/08 13:12:17;;;;;;;80.03;28.77;;;13.20;99.90;;;;;;5039345;28;21015;-80
2021/11/08 13:14:49;;;;;;;6.17;3.50;;;13.20;99.90;;;;;;5043612;28;20473;-80
2021/11/08 13:17:20;;;;;;;5.47;1.50;;;13.30;99.90;;;;;;5045653;28;20976;-79
2021/11/08 13:19:51;;;;;;;2.30;1.53;;;13.20;99.90;;;;;;5044148;28;20490;-80
2021/11/08 13:22:35;;;;;;;3.97;1.20;;;13.30;99.90;;;;;;5038674;28;20458;-79
2021/11/08 13:25:08;;;;;;;11.73;1.40;;;13.40;99.90;;;;;;5043320;28;20978;-80
2021/11/08 13:27:58;;;;;;;1.73;1.00;;;13.50;99.90;;;;;;5041570;28;20987;-79
2021/11/08 13:30:34;;;;;;;5.53;0.90;;;13.50;99.90;;;;;;5043431;28;20559;-79
2021/11/08 13:33:04;;;;;;;5.20;0.93;;;13.50;99.90;;;;;;5046410;28;20576;-79
2021/11/08 13:35:32;;;;;;;3.47;1.53;;;13.60;99.90;;;;;;5044942;28;20514;-80
2021/11/08 13:38:09;;;;;;;6.10;1.50;;;13.60;99.90;;;;;;5044089;28;20540;-80
2021/11/08 13:40:40;;;;;;;4.43;1.50;;;13.60;99.90;;;;;;5047983;28;21022;-79
2021/11/08 13:43:14;;;;;;;1.77;0.87;;;13.70;99.90;;;;;;5045813;28;20447;-79
2021/11/08 13:45:47;;;;;;;3.53;0.90;;;13.70;99.90;;;;;;5043037;28;20462;-79
2021/11/08 13:48:22;;;;;;;1.63;1.17;;;13.60;99.90;;;;;;5039065;28;21004;-79
2021/11/08 13:50:51;;;;;;;5.70;1.40;;;13.50;99.90;;;;;;5040058;28;20500;-78
2021/11/08 13:53:23;;;;;;;3.87;2.50;;;13.40;99.90;;;;;;5052364;28;20603;-79
2021/11/08 13:55:56;;;;;;;3.15;1.50;;;13.30;99.90;;;;;;5047438;28;20517;-80
2021/11/08 13:58:26;;;;;;;4.33;1.77;;;13.30;99.90;;;;;;5044223;28;20227;-79
2021/11/08 14:01:00;;;;;;;2.83;1.47;;;13.20;99.90;;;;;;5042196;28;20511;-78
2021/11/08 14:03:37;;;;;;;2.27;1.13;;;13.20;99.90;;;;;;5044117;28;20794;-79
2021/11/08 14:06:06;;;;;;;5.77;1.30;;;13.20;99.90;;;;;;5041014;28;20459;-78
2021/11/08 14:08:37;;;;;;;4.00;1.17;;;13.20;99.90;;;;;;5041322;28;20844;-79
2021/11/08 14:11:05;;;;;;;5.13;1.42;;;13.10;99.90;;;;;;5043883;28;20928;-79
2021/11/08 14:13:40;;;;;;;2.23;1.13;;;13.00;99.90;;;;;;5042710;28;20215;-79
2021/11/08 14:16:10;;;;;;;2.10;1.10;;;13.00;99.90;;;;;;5041651;28;20546;-80
2021/11/08 14:18:39;;;;;;;2.37;1.10;;;13.00;99.90;;;;;;5044913;28;20463;-79
2021/11/08 14:21:15;;;;;;;5.73;1.20;;;13.00;99.90;;;;;;5046780;28;20811;-79
2021/11/08 14:23:45;;;;;;;6.70;1.63;;;13.00;99.90;;;;;;5041268;28;20460;-79
2021/11/08 14:26:17;;;;;;;3.37;1.50;;;12.90;99.90;;;;;;5045886;28;20447;-79
2021/11/08 14:28:48;;;;;;;4.53;2.50;;;12.90;99.90;;;;;;5041539;28;20549;-79
2021/11/08 14:31:22;;;;;;;5.90;1.23;;;12.90;99.90;;;;;;5042452;28;20453;-78
2021/11/08 14:33:52;;;;;;;2.53;1.33;;;12.80;99.90;;;;;;5041266;28;20571;-79
2021/11/08 14:36:23;;;;;;;7.03;2.00;;;12.80;99.90;;;;;;5047213;28;20963;-78
2021/11/08 14:38:57;;;;;;;4.40;2.17;;;12.80;99.90;;;;;;5045273;28;20806;-78